createdAt,value
2019-03-25T00:01:45.049Z,99.90
2019-03-25T00:03:49.465Z,99.90
2019-03-25T00:05:54.648Z,99.90
2019-03-25T00:07:59.067Z,99.90
2019-03-25T00:10:03.567Z,99.90
2019-03-25T00:12:07.991Z,99.90
2019-03-25T00:14:12.432Z,99.90
2019-03-25T00:16:16.791Z,99.90
2019-03-25T00:18:21.289Z,99.90
2019-03-25T00:20:26.334Z,99.90
2019-03-25T00:22:30.859Z,99.90
2019-03-25T00:24:38.879Z,99.90
2019-03-25T00:26:41.670Z,99.90
2019-03-25T00:28:46.103Z,99.90
2019-03-25T00:30:50.496Z,99.90
2019-03-25T00:32:55.811Z,99.90
2019-03-25T00:35:00.330Z,99.90
2019-03-25T00:37:04.939Z,99.90
2019-03-25T00:39:09.465Z,99.90
2019-03-25T00:41:13.820Z,99.90
2019-03-25T00:43:18.228Z,99.90
2019-03-25T00:45:23.120Z,99.90
2019-03-25T00:47:27.754Z,99.90
2019-03-25T00:49:32.088Z,99.90
2019-03-25T00:51:36.507Z,99.90
2019-03-25T00:53:40.844Z,99.90
2019-03-25T00:55:45.252Z,99.90
2019-03-25T00:57:49.611Z,99.90
2019-03-25T00:59:54.537Z,99.90
2019-03-25T01:01:59.528Z,99.90
2019-03-25T01:04:04.216Z,99.90
2019-03-25T01:06:08.628Z,99.90
2019-03-25T01:08:13.042Z,99.90
2019-03-25T01:10:17.562Z,99.90
2019-03-25T01:12:21.960Z,99.90
2019-03-25T01:14:26.880Z,99.90
2019-03-25T01:16:31.484Z,99.90
2019-03-25T01:18:35.905Z,99.90
2019-03-25T01:20:40.399Z,99.90
2019-03-25T01:22:44.747Z,99.90
2019-03-25T01:24:49.095Z,99.90
2019-03-25T01:26:55.439Z,99.90
2019-03-25T01:28:59.787Z,99.90
2019-03-25T01:31:04.207Z,99.90
2019-03-25T01:33:08.620Z,99.90
2019-03-25T01:35:13.167Z,99.90
2019-03-25T01:37:17.571Z,99.90
2019-03-25T01:39:21.992Z,99.90
2019-03-25T01:41:27.223Z,99.90
2019-03-25T01:43:31.562Z,99.90
2019-03-25T01:45:55.604Z,99.90
2019-03-25T01:47:59.978Z,99.90
2019-03-25T01:50:05.647Z,99.90
2019-03-25T01:52:09.979Z,99.90
2019-03-25T01:54:14.327Z,99.90
2019-03-25T01:56:18.660Z,99.90
2019-03-25T01:58:23.238Z,99.90
2019-03-25T02:00:27.970Z,99.90
2019-03-25T02:02:51.298Z,99.90
2019-03-25T02:04:56.487Z,99.90
2019-03-25T02:07:00.862Z,99.90
2019-03-25T02:09:08.168Z,99.90
2019-03-25T02:11:12.674Z,99.90
2019-03-25T02:13:17.179Z,99.90
2019-03-25T02:15:21.627Z,99.90
2019-03-25T02:17:26.605Z,99.90
2019-03-25T02:19:31.219Z,99.90
2019-03-25T02:21:35.563Z,99.90
2019-03-25T02:23:40.090Z,99.90
2019-03-25T02:25:44.436Z,99.90
2019-03-25T02:27:49.247Z,99.90
2019-03-25T02:29:54.170Z,99.90
2019-03-25T02:31:58.672Z,99.90
2019-03-25T02:34:03.016Z,99.90
2019-03-25T02:36:07.374Z,99.90
2019-03-25T02:38:11.748Z,99.90
2019-03-25T02:40:16.179Z,99.90
2019-03-25T02:42:20.604Z,99.90
2019-03-25T02:44:25.613Z,99.90
2019-03-25T02:46:29.934Z,99.90
2019-03-25T02:48:53.329Z,99.90
2019-03-25T02:50:58.454Z,99.90
2019-03-25T02:53:02.787Z,99.90
2019-03-25T02:55:07.554Z,99.90
2019-03-25T02:57:12.021Z,99.90
2019-03-25T02:59:16.375Z,99.90
2019-03-25T03:01:20.862Z,99.90
2019-03-25T03:03:25.850Z,99.90
2019-03-25T03:05:30.187Z,99.90
2019-03-25T03:07:34.608Z,99.90
2019-03-25T03:09:38.997Z,99.90
2019-03-25T03:11:43.440Z,99.90
2019-03-25T03:13:47.785Z,99.90
2019-03-25T03:15:52.496Z,99.90
2019-03-25T03:17:57.470Z,99.90
2019-03-25T03:20:01.880Z,99.90
2019-03-25T03:22:06.239Z,99.90
2019-03-25T03:24:10.570Z,99.90
2019-03-25T03:26:15.005Z,99.90
2019-03-25T03:28:19.504Z,99.90
2019-03-25T03:30:24.445Z,99.90
2019-03-25T03:32:28.977Z,99.90
2019-03-25T03:34:33.307Z,99.90
2019-03-25T03:36:37.644Z,99.90
2019-03-25T03:38:41.998Z,99.90
2019-03-25T03:40:46.355Z,99.90
2019-03-25T03:42:50.755Z,99.90
2019-03-25T03:44:55.536Z,99.90
2019-03-25T03:46:59.932Z,99.90
2019-03-25T03:49:23.294Z,99.90
2019-03-25T03:51:28.396Z,99.90
2019-03-25T03:53:33.226Z,99.90
2019-03-25T03:55:39.371Z,99.90
2019-03-25T03:57:44.256Z,99.90
2019-03-25T03:59:48.701Z,99.90
2019-03-25T04:01:53.049Z,99.90
2019-03-25T04:03:57.688Z,99.90
2019-03-25T04:06:02.049Z,99.90
2019-03-25T04:08:06.535Z,99.90
2019-03-25T04:10:11.037Z,99.90
2019-03-25T04:12:15.463Z,99.90
2019-03-25T04:14:19.788Z,99.90
2019-03-25T04:16:24.410Z,99.90
2019-03-25T04:18:28.921Z,99.90
2019-03-25T04:20:33.331Z,99.90
2019-03-25T04:22:37.665Z,99.90
2019-03-25T04:24:42.352Z,99.90
2019-03-25T04:26:46.693Z,99.90
2019-03-25T04:28:51.110Z,99.90
2019-03-25T04:30:55.751Z,99.90
2019-03-25T04:33:00.474Z,99.90
2019-03-25T04:35:05.860Z,99.90
2019-03-25T04:37:10.400Z,99.90
2019-03-25T04:39:14.792Z,99.90
2019-03-25T04:41:19.129Z,99.90
2019-03-25T04:43:23.669Z,99.90
2019-03-25T04:45:28.296Z,99.90
2019-03-25T04:47:32.627Z,99.90
2019-03-25T04:49:36.979Z,99.90
2019-03-25T04:51:41.363Z,99.90
2019-03-25T04:53:45.699Z,99.90
2019-03-25T04:55:50.047Z,99.90
2019-03-25T04:57:54.476Z,99.90
2019-03-25T04:59:59.003Z,99.90
2019-03-25T05:02:03.505Z,99.90
2019-03-25T05:04:07.915Z,99.90
2019-03-25T05:06:12.448Z,99.90
2019-03-25T05:08:16.875Z,99.90
2019-03-25T05:10:21.209Z,99.90
2019-03-25T05:12:25.951Z,99.90
2019-03-25T05:14:30.376Z,99.90
2019-03-25T05:16:34.800Z,99.90
2019-03-25T05:18:39.123Z,99.90
2019-03-25T05:20:43.885Z,99.90
2019-03-25T05:22:48.287Z,99.90
2019-03-25T05:24:52.648Z,99.90
2019-03-25T05:26:57.279Z,99.90
2019-03-25T05:29:01.623Z,99.90
2019-03-25T05:31:06.079Z,99.90
2019-03-25T05:33:10.514Z,99.90
2019-03-25T05:35:15.399Z,99.90
2019-03-25T05:37:19.802Z,99.90
2019-03-25T05:39:24.178Z,99.90
2019-03-25T05:41:28.880Z,99.90
2019-03-25T05:43:33.232Z,99.90
2019-03-25T05:45:37.675Z,99.90
2019-03-25T05:47:41.999Z,99.90
2019-03-25T05:49:46.357Z,99.90
2019-03-25T05:51:50.783Z,99.90
2019-03-25T05:53:55.439Z,99.90
2019-03-25T05:55:59.881Z,99.90
2019-03-25T05:58:04.323Z,99.90
2019-03-25T06:00:09.747Z,99.90
2019-03-25T06:02:14.158Z,99.90
2019-03-25T06:04:18.511Z,99.90
2019-03-25T06:06:22.913Z,99.90
2019-03-25T06:08:27.557Z,99.90
2019-03-25T06:10:32.366Z,99.90
2019-03-25T06:12:36.802Z,99.90
2019-03-25T06:14:41.196Z,99.90
2019-03-25T06:16:45.551Z,99.90
2019-03-25T06:18:49.964Z,99.90
2019-03-25T06:20:54.377Z,99.90
2019-03-25T06:22:59.244Z,99.90
2019-03-25T06:25:03.768Z,99.90
2019-03-25T06:27:14.128Z,99.90
2019-03-25T06:29:14.437Z,99.90
2019-03-25T06:31:18.939Z,99.90
2019-03-25T06:33:23.271Z,99.90
2019-03-25T06:35:28.252Z,99.90
2019-03-25T06:37:33.822Z,99.90
2019-03-25T06:39:38.154Z,99.90
2019-03-25T06:41:42.570Z,99.90
2019-03-25T06:43:47.169Z,99.90
2019-03-25T06:45:51.680Z,99.90
2019-03-25T06:47:58.349Z,99.90
2019-03-25T06:50:02.724Z,99.90
2019-03-25T06:52:07.104Z,99.90
2019-03-25T06:54:11.599Z,99.90
2019-03-25T06:56:16.007Z,99.90
2019-03-25T06:58:20.510Z,99.90
2019-03-25T07:00:25.687Z,99.90
2019-03-25T07:02:30.481Z,99.90
2019-03-25T07:04:34.887Z,99.90
2019-03-25T07:06:39.228Z,99.90
2019-03-25T07:08:43.564Z,99.90
2019-03-25T07:10:48.095Z,99.90
2019-03-25T07:12:52.593Z,99.90
2019-03-25T07:14:57.751Z,99.90
2019-03-25T07:17:02.200Z,99.90
2019-03-25T07:19:06.714Z,99.90
2019-03-25T07:21:11.192Z,99.90
2019-03-25T07:23:15.590Z,99.90
2019-03-25T07:25:20.091Z,99.90
2019-03-25T07:27:24.422Z,99.90
2019-03-25T07:29:29.663Z,99.90
2019-03-25T07:31:34.179Z,99.90
2019-03-25T07:33:38.511Z,99.90
2019-03-25T07:35:42.873Z,99.90
2019-03-25T07:37:47.300Z,99.90
2019-03-25T07:39:52.055Z,99.90
2019-03-25T07:41:57.024Z,99.90
2019-03-25T07:44:01.711Z,99.90
2019-03-25T07:46:06.223Z,99.90
2019-03-25T07:48:10.567Z,99.90
2019-03-25T07:50:15.308Z,99.90
2019-03-25T07:52:19.656Z,99.90
2019-03-25T07:54:24.027Z,99.90
2019-03-25T07:56:29.568Z,99.90
2019-03-25T07:58:33.882Z,99.90
2019-03-25T08:00:38.218Z,99.90
2019-03-25T08:02:42.650Z,99.90
2019-03-25T08:04:47.060Z,99.90
2019-03-25T08:06:51.463Z,99.90
2019-03-25T08:09:03.658Z,99.90
2019-03-25T08:11:02.385Z,99.90
2019-03-25T08:13:07.029Z,99.90
2019-03-25T08:15:11.632Z,99.90
2019-03-25T08:17:16.350Z,99.90
2019-03-25T08:19:20.923Z,99.90
2019-03-25T08:21:25.261Z,99.90
2019-03-25T08:23:30.322Z,99.90
2019-03-25T08:25:53.639Z,99.90
2019-03-25T08:28:00.218Z,99.90
2019-03-25T08:30:06.396Z,99.90
2019-03-25T08:32:10.718Z,99.90
2019-03-25T08:34:15.148Z,99.90
2019-03-25T08:36:20.565Z,99.90
2019-03-25T08:38:24.959Z,99.90
2019-03-25T08:40:30.287Z,99.90
2019-03-25T08:42:34.692Z,99.90
2019-03-25T08:44:59.123Z,99.90
2019-03-25T08:47:03.542Z,99.90
2019-03-25T08:49:27.956Z,99.90
2019-03-25T08:51:32.375Z,99.90
2019-03-25T08:53:36.743Z,99.90
2019-03-25T08:55:41.148Z,99.90
2019-03-25T08:57:45.556Z,99.90
2019-03-25T08:59:50.187Z,99.90
2019-03-25T09:01:54.671Z,99.90
2019-03-25T09:04:00.058Z,99.90
2019-03-25T09:06:04.494Z,99.90
2019-03-25T09:08:08.896Z,99.90
2019-03-25T09:10:13.809Z,99.90
2019-03-25T09:12:18.181Z,99.90
2019-03-25T09:14:22.485Z,99.90
2019-03-25T09:16:27.349Z,99.90
2019-03-25T09:18:32.012Z,99.90
2019-03-25T09:20:36.495Z,99.90
2019-03-25T09:22:40.971Z,99.90
2019-03-25T09:24:45.457Z,99.90
2019-03-25T09:26:49.785Z,99.90
2019-03-25T09:28:54.112Z,99.90
2019-03-25T09:31:18.833Z,99.90
2019-03-25T09:33:23.491Z,99.90
2019-03-25T09:35:28.849Z,99.90
2019-03-25T09:37:33.248Z,99.90
2019-03-25T09:39:37.654Z,99.90
2019-03-25T09:41:42.640Z,99.90
2019-03-25T09:43:47.143Z,99.90
2019-03-25T09:45:51.475Z,99.90
2019-03-25T09:47:55.804Z,99.90
2019-03-25T09:50:01.100Z,99.90
2019-03-25T09:52:05.750Z,99.90
2019-03-25T09:54:10.155Z,99.90
2019-03-25T09:56:14.655Z,99.90
2019-03-25T09:58:19.071Z,99.90
2019-03-25T10:00:30.716Z,99.90
2019-03-25T10:02:35.128Z,99.90
2019-03-25T10:04:39.544Z,99.90
2019-03-25T10:06:43.885Z,99.90
2019-03-25T10:08:48.542Z,99.90
2019-03-25T10:10:52.868Z,99.90
2019-03-25T10:12:58.274Z,99.90
2019-03-25T10:15:03.437Z,99.90
2019-03-25T10:17:07.848Z,99.90
2019-03-25T10:19:12.251Z,99.90
2019-03-25T10:21:16.752Z,99.90
2019-03-25T10:23:21.228Z,99.90
2019-03-25T10:25:25.631Z,99.90
2019-03-25T10:27:31.067Z,99.90
2019-03-25T10:29:35.467Z,99.90
2019-03-25T10:31:39.879Z,99.90
2019-03-25T10:33:44.371Z,99.90
2019-03-25T10:35:49.168Z,99.90
2019-03-25T10:37:53.505Z,99.90
2019-03-25T10:39:59.129Z,99.90
2019-03-25T10:42:03.583Z,99.90
2019-03-25T10:44:08.151Z,99.90
2019-03-25T10:46:12.772Z,99.90
2019-03-25T10:48:17.259Z,99.90
2019-03-25T10:50:21.676Z,99.90
2019-03-25T10:52:26.439Z,99.40
2019-03-25T10:54:31.852Z,99.90
2019-03-25T10:56:36.188Z,99.90
2019-03-25T10:58:40.916Z,99.90
2019-03-25T11:00:45.396Z,99.90
2019-03-25T11:02:49.887Z,95.90
2019-03-25T11:04:54.476Z,93.50
2019-03-25T11:06:59.754Z,88.30
2019-03-25T11:09:06.508Z,74.70
2019-03-25T11:11:10.939Z,65.00
2019-03-25T11:13:15.286Z,78.10
2019-03-25T11:15:19.867Z,91.80
2019-03-25T11:17:24.295Z,99.00
2019-03-25T11:19:29.747Z,99.90
2019-03-25T11:21:34.259Z,99.90
2019-03-25T11:23:38.849Z,99.90
2019-03-25T11:25:43.263Z,99.90
2019-03-25T11:27:54.313Z,99.90
2019-03-25T11:29:53.780Z,98.60
2019-03-25T11:31:59.666Z,96.90
2019-03-25T11:34:04.512Z,99.10
2019-03-25T11:36:09.023Z,99.90
2019-03-25T11:38:13.518Z,98.30
2019-03-25T11:40:18.023Z,97.70
2019-03-25T11:42:22.739Z,97.60
2019-03-25T11:44:29.026Z,97.90
2019-03-25T11:46:33.819Z,99.90
2019-03-25T11:48:38.247Z,99.90
2019-03-25T11:50:42.745Z,99.90
2019-03-25T11:52:47.456Z,99.90
2019-03-25T11:54:51.883Z,99.90
2019-03-25T11:56:56.224Z,96.90
2019-03-25T11:59:02.971Z,94.40
2019-03-25T12:01:07.900Z,93.80
2019-03-25T12:03:12.226Z,96.10
2019-03-25T12:05:17.114Z,96.70
2019-03-25T12:07:21.451Z,98.40
2019-03-25T12:09:25.863Z,99.20
2019-03-25T12:11:31.144Z,99.90
2019-03-25T12:13:35.643Z,99.80
2019-03-25T12:15:40.136Z,96.00
2019-03-25T12:17:44.459Z,91.90
2019-03-25T12:19:48.912Z,90.20
2019-03-25T12:21:53.334Z,90.70
2019-03-25T12:23:57.938Z,90.10
2019-03-25T12:26:03.304Z,88.50
2019-03-25T12:28:07.691Z,92.00
2019-03-25T12:30:12.403Z,90.40
2019-03-25T12:32:17.132Z,91.30
2019-03-25T12:34:21.531Z,94.80
2019-03-25T12:36:26.139Z,90.70
2019-03-25T12:38:31.087Z,90.00
2019-03-25T12:40:35.662Z,91.40
2019-03-25T12:42:40.148Z,94.90
2019-03-25T12:44:44.518Z,98.60
2019-03-25T12:46:48.931Z,94.60
2019-03-25T12:48:53.422Z,94.30
2019-03-25T12:50:57.783Z,93.10
2019-03-25T12:53:02.963Z,91.40
2019-03-25T12:55:07.604Z,93.70
2019-03-25T12:57:12.024Z,95.00
2019-03-25T12:59:16.347Z,95.70
2019-03-25T13:01:20.679Z,95.30
2019-03-25T13:03:25.030Z,98.40
2019-03-25T13:05:30.314Z,99.90
2019-03-25T13:07:34.751Z,99.90
2019-03-25T13:09:39.472Z,99.90
2019-03-25T13:11:43.818Z,99.90
2019-03-25T13:13:48.301Z,99.90
2019-03-25T13:15:52.739Z,99.90
2019-03-25T13:17:57.150Z,99.90
2019-03-25T13:20:02.336Z,99.90
2019-03-25T13:22:06.747Z,99.90
2019-03-25T13:24:11.244Z,99.90
2019-03-25T13:26:15.580Z,98.70
2019-03-25T13:28:20.224Z,87.00
2019-03-25T13:30:24.712Z,56.80
2019-03-25T13:32:30.171Z,61.30
2019-03-25T13:34:34.646Z,60.90
2019-03-25T13:36:38.996Z,53.00
2019-03-25T13:38:43.319Z,48.00
2019-03-25T13:40:47.668Z,49.30
2019-03-25T13:42:52.150Z,48.60
2019-03-25T13:44:57.689Z,54.30
2019-03-25T13:47:02.638Z,49.60
2019-03-25T13:49:06.960Z,40.30
2019-03-25T13:53:34.138Z,60.90
2019-03-25T13:55:38.515Z,81.40
2019-03-25T13:57:42.856Z,91.80
2019-03-25T13:59:47.275Z,97.40
2019-03-25T14:01:51.611Z,99.30
2019-03-25T14:03:55.944Z,99.80
2019-03-25T14:06:01.171Z,97.80
2019-03-25T14:08:05.707Z,98.00
2019-03-25T14:10:10.717Z,99.20
2019-03-25T14:12:15.117Z,99.90
2019-03-25T14:14:19.439Z,99.90
2019-03-25T14:16:23.840Z,99.90
2019-03-25T14:18:28.201Z,99.90
2019-03-25T14:20:33.860Z,99.90
2019-03-25T14:22:38.276Z,99.90
2019-03-25T14:24:42.676Z,99.90
2019-03-25T14:26:47.171Z,99.90
2019-03-25T14:28:51.495Z,98.30
2019-03-25T14:30:55.915Z,93.60
2019-03-25T14:33:01.199Z,82.80
2019-03-25T14:35:06.587Z,90.00
2019-03-25T14:37:10.945Z,93.40
2019-03-25T14:39:15.455Z,99.80
2019-03-25T14:41:19.793Z,99.90
2019-03-25T14:43:24.536Z,99.90
2019-03-25T14:45:29.041Z,99.90
2019-03-25T14:47:34.152Z,99.90
2019-03-25T14:49:38.592Z,99.90
2019-03-25T14:51:43.065Z,99.90
2019-03-25T14:53:59.828Z,99.90
2019-03-25T14:56:04.432Z,99.90
2019-03-25T14:58:08.767Z,99.90
2019-03-25T15:00:24.480Z,99.90
2019-03-25T15:02:20.311Z,96.70
2019-03-25T15:04:24.642Z,93.50
2019-03-25T15:06:29.064Z,94.00
2019-03-25T15:08:33.858Z,99.30
2019-03-25T15:10:38.184Z,99.90
2019-03-25T15:12:42.599Z,99.90
2019-03-25T15:14:47.303Z,99.90
2019-03-25T15:16:51.804Z,99.90
2019-03-25T15:18:56.166Z,99.90
2019-03-25T15:21:01.111Z,99.90
2019-03-25T15:23:05.770Z,99.90
2019-03-25T15:25:10.602Z,99.90
2019-03-25T15:27:15.020Z,99.90
2019-03-25T15:29:19.355Z,99.90
2019-03-25T15:31:23.759Z,99.90
2019-03-25T15:33:28.134Z,99.90
2019-03-25T15:35:33.443Z,99.90
2019-03-25T15:37:37.767Z,99.90
2019-03-25T15:39:46.649Z,99.90
2019-03-25T15:41:48.335Z,99.90
2019-03-25T15:43:52.715Z,99.90
2019-03-25T15:45:57.066Z,99.90
2019-03-25T15:48:02.066Z,99.90
2019-03-25T15:50:09.059Z,99.90
2019-03-25T15:52:13.719Z,99.90
2019-03-25T15:54:18.044Z,99.90
2019-03-25T15:56:22.591Z,99.90
2019-03-25T15:58:27.037Z,99.90
2019-03-25T16:00:32.142Z,99.90
2019-03-25T16:02:36.538Z,99.90
2019-03-25T16:04:40.893Z,99.90
2019-03-25T16:06:45.215Z,99.90
2019-03-25T16:08:49.713Z,99.90
2019-03-25T16:10:54.051Z,99.90
2019-03-25T16:12:58.474Z,99.90
2019-03-25T16:15:03.808Z,99.90
2019-03-25T16:17:08.502Z,99.90
2019-03-25T16:19:12.828Z,99.90
2019-03-25T16:21:17.231Z,99.90
2019-03-25T16:23:21.588Z,99.90
2019-03-25T16:25:28.879Z,99.90
2019-03-25T16:27:34.035Z,99.90
2019-03-25T16:29:39.134Z,99.90
2019-03-25T16:31:43.544Z,99.90
2019-03-25T16:33:47.863Z,99.90
2019-03-25T16:36:11.184Z,99.90
2019-03-25T16:38:15.560Z,99.90
2019-03-25T16:40:19.896Z,99.90
2019-03-25T16:42:24.259Z,99.90
2019-03-25T16:44:28.676Z,99.90
2019-03-25T16:46:34.255Z,99.90
2019-03-25T16:48:38.612Z,99.90
2019-03-25T16:50:42.948Z,99.90
2019-03-25T16:52:47.376Z,99.90
2019-03-25T16:54:51.842Z,99.90
2019-03-25T16:56:56.479Z,99.90
2019-03-25T16:59:01.625Z,99.90
2019-03-25T17:01:10.128Z,99.90
2019-03-25T17:03:12.476Z,99.90
2019-03-25T17:05:17.219Z,99.90
2019-03-25T17:07:21.684Z,99.90
2019-03-25T17:09:26.115Z,99.90
2019-03-25T17:11:30.917Z,99.90
2019-03-25T17:13:35.591Z,99.90
2019-03-25T17:15:40.129Z,99.90
2019-03-25T17:17:44.469Z,99.90
2019-03-25T17:19:48.924Z,99.90
2019-03-25T17:21:58.130Z,99.90
2019-03-25T17:23:59.596Z,99.90
2019-03-25T17:26:04.540Z,99.90
2019-03-25T17:28:09.152Z,99.90
2019-03-25T17:30:14.276Z,99.90
2019-03-25T17:32:18.635Z,99.90
2019-03-25T17:34:23.273Z,99.90
2019-03-25T17:36:27.754Z,99.90
2019-03-25T17:38:33.119Z,99.90
2019-03-25T17:40:37.761Z,99.90
2019-03-25T17:42:42.250Z,99.90
2019-03-25T17:44:46.595Z,99.90
2019-03-25T17:46:50.932Z,99.90
2019-03-25T17:48:55.259Z,99.90
2019-03-25T17:50:59.898Z,99.90
2019-03-25T17:53:04.803Z,99.90
2019-03-25T17:55:09.819Z,99.90
2019-03-25T17:57:14.407Z,99.90
2019-03-25T17:59:18.728Z,99.90
2019-03-25T18:01:32.385Z,99.90
2019-03-25T18:03:34.896Z,99.90
2019-03-25T18:05:39.255Z,99.90
2019-03-25T18:07:43.716Z,99.90
2019-03-25T18:09:48.176Z,99.90
2019-03-25T18:11:52.904Z,99.90
2019-03-25T18:13:57.257Z,99.90
2019-03-25T18:16:03.166Z,99.90
2019-03-25T18:18:07.881Z,99.90
2019-03-25T18:20:18.670Z,99.90
2019-03-25T18:22:18.463Z,99.90
2019-03-25T18:24:22.788Z,99.90
2019-03-25T18:26:27.243Z,99.90
2019-03-25T18:28:32.280Z,99.90
2019-03-25T18:30:37.300Z,99.90
2019-03-25T18:32:41.781Z,99.90
2019-03-25T18:34:46.292Z,99.90
2019-03-25T18:36:50.958Z,99.90
2019-03-25T18:38:55.520Z,99.90
2019-03-25T18:41:00.007Z,99.90
2019-03-25T18:43:05.405Z,99.90
2019-03-25T18:45:10.003Z,99.90
2019-03-25T18:47:14.672Z,99.90
2019-03-25T18:49:18.995Z,99.90
2019-03-25T18:51:23.493Z,99.90
2019-03-25T18:53:28.116Z,99.90
2019-03-25T18:55:33.720Z,99.90
2019-03-25T18:57:38.664Z,99.90
2019-03-25T18:59:43.151Z,99.90
2019-03-25T19:01:54.386Z,99.90
2019-03-25T19:03:53.896Z,99.90
2019-03-25T19:05:58.498Z,99.90
2019-03-25T19:08:05.667Z,99.90
2019-03-25T19:10:14.593Z,99.90
2019-03-25T19:12:19.096Z,99.90
2019-03-25T19:14:23.619Z,99.90
2019-03-25T19:16:28.024Z,99.90
2019-03-25T19:18:33.611Z,99.90
2019-03-25T19:20:38.278Z,99.90
2019-03-25T19:22:42.700Z,99.90
2019-03-25T19:24:47.404Z,99.90
2019-03-25T19:26:55.674Z,99.90
2019-03-25T19:29:00.436Z,99.90
2019-03-25T19:31:08.353Z,99.90
2019-03-25T19:33:12.480Z,99.90
2019-03-25T19:35:17.108Z,99.90
2019-03-25T19:37:21.570Z,99.90
2019-03-25T19:39:26.132Z,99.90
2019-03-25T19:41:42.407Z,99.90
2019-03-25T19:43:47.007Z,99.90
2019-03-25T19:45:51.517Z,99.90
2019-03-25T19:47:56.013Z,99.90
2019-03-25T19:50:00.519Z,99.90
2019-03-25T19:52:05.547Z,99.90
2019-03-25T19:54:09.968Z,99.90
2019-03-25T19:56:14.556Z,99.90
2019-03-25T19:58:19.387Z,99.90
2019-03-25T20:00:35.608Z,99.90
2019-03-25T20:02:41.103Z,99.90
2019-03-25T20:04:45.656Z,99.90
2019-03-25T20:06:50.287Z,99.90
2019-03-25T20:08:54.707Z,99.90
2019-03-25T20:10:59.058Z,99.90
2019-03-25T20:13:04.482Z,99.90
2019-03-25T20:15:09.293Z,99.90
2019-03-25T20:17:14.403Z,99.90
2019-03-25T20:19:18.822Z,99.90
2019-03-25T20:21:23.247Z,99.90
2019-03-25T20:23:36.034Z,99.90
2019-03-25T20:25:40.377Z,99.90
2019-03-25T20:27:44.937Z,99.90
2019-03-25T20:29:49.393Z,99.90
2019-03-25T20:31:53.740Z,99.90
2019-03-25T20:34:10.098Z,99.90
2019-03-25T20:36:04.607Z,99.90
2019-03-25T20:38:28.065Z,99.90
2019-03-25T20:40:32.735Z,99.90
2019-03-25T20:42:37.349Z,99.90
2019-03-25T20:44:41.922Z,99.90
2019-03-25T20:46:46.383Z,99.90
2019-03-25T20:48:50.751Z,99.90
2019-03-25T20:50:55.207Z,99.90
2019-03-25T20:52:59.668Z,99.90
2019-03-25T20:55:04.613Z,99.90
2019-03-25T20:57:09.161Z,99.90
2019-03-25T20:59:14.103Z,99.90
2019-03-25T21:01:18.516Z,99.90
2019-03-25T21:03:23.252Z,99.90
2019-03-25T21:05:27.775Z,99.90
2019-03-25T21:07:32.265Z,99.90
2019-03-25T21:09:36.807Z,99.90
2019-03-25T21:11:41.569Z,99.90
2019-03-25T21:13:46.237Z,99.90
2019-03-25T21:15:50.795Z,99.90
2019-03-25T21:17:55.192Z,99.90
2019-03-25T21:19:59.621Z,99.90
2019-03-25T21:22:05.602Z,99.90
2019-03-25T21:24:10.091Z,99.90
2019-03-25T21:26:14.548Z,99.90
2019-03-25T21:28:19.073Z,99.90
2019-03-25T21:30:23.674Z,99.90
2019-03-25T21:32:28.041Z,99.90
2019-03-25T21:34:32.595Z,99.90
2019-03-25T21:36:37.651Z,99.90
2019-03-25T21:38:41.998Z,99.90
2019-03-25T21:40:46.586Z,99.90
2019-03-25T21:42:50.970Z,99.90
2019-03-25T21:44:55.314Z,99.90
2019-03-25T21:46:59.639Z,99.90
2019-03-25T21:49:04.606Z,99.90
2019-03-25T21:51:09.133Z,99.90
2019-03-25T21:53:13.592Z,99.90
2019-03-25T21:55:17.941Z,99.90
2019-03-25T21:57:22.298Z,99.90
2019-03-25T21:59:26.787Z,99.90
2019-03-25T22:01:31.464Z,99.90
2019-03-25T22:03:36.751Z,99.90
2019-03-25T22:05:41.218Z,99.90
2019-03-25T22:07:45.565Z,99.90
2019-03-25T22:09:49.983Z,99.90
2019-03-25T22:11:54.349Z,99.90
2019-03-25T22:13:58.701Z,99.90
2019-03-25T22:16:03.350Z,99.90
2019-03-25T22:18:08.052Z,99.90
2019-03-25T22:20:13.326Z,99.90
2019-03-25T22:22:17.653Z,99.90
2019-03-25T22:24:22.043Z,99.90
2019-03-25T22:26:26.396Z,99.90
2019-03-25T22:28:30.723Z,99.90
2019-03-25T22:30:36.238Z,99.90
2019-03-25T22:32:40.740Z,99.90
2019-03-25T22:34:51.215Z,99.90
2019-03-25T22:36:55.624Z,99.90
2019-03-25T22:38:59.967Z,99.90
2019-03-25T22:41:05.614Z,99.90
2019-03-25T22:43:09.971Z,99.90
2019-03-25T22:45:16.155Z,99.90
2019-03-25T22:47:20.615Z,99.90
2019-03-25T22:49:24.939Z,99.90
2019-03-25T22:51:29.371Z,99.90
2019-03-25T22:53:34.471Z,99.90
2019-03-25T22:55:39.104Z,99.90
2019-03-25T22:57:43.458Z,99.90
2019-03-25T22:59:47.792Z,99.90
2019-03-25T23:01:52.356Z,99.90
2019-03-25T23:03:56.779Z,99.90
2019-03-25T23:06:01.144Z,99.90
2019-03-25T23:08:06.781Z,99.90
2019-03-25T23:10:11.648Z,99.90
2019-03-25T23:12:15.970Z,99.90
2019-03-25T23:14:20.299Z,99.90
2019-03-25T23:16:24.655Z,99.90
2019-03-25T23:18:29.419Z,99.90
2019-03-25T23:20:34.803Z,99.90
2019-03-25T23:22:39.318Z,99.90
2019-03-25T23:24:43.868Z,99.90
2019-03-25T23:26:48.355Z,99.90
2019-03-25T23:28:52.739Z,99.90
2019-03-25T23:30:57.140Z,99.90
2019-03-25T23:33:01.468Z,99.90
2019-03-25T23:35:06.960Z,99.90
2019-03-25T23:37:11.415Z,99.90
2019-03-25T23:39:15.849Z,99.90
2019-03-25T23:41:20.572Z,99.90
2019-03-25T23:43:25.011Z,99.90
2019-03-25T23:45:29.508Z,99.90
2019-03-25T23:47:34.035Z,99.90
2019-03-25T23:49:38.742Z,99.90
2019-03-25T23:51:43.068Z,99.90
2019-03-25T23:53:47.416Z,99.90
2019-03-25T23:55:51.750Z,99.90
2019-03-25T23:57:56.079Z,99.90
